createdAt,value
2023-03-05T00:00:12.242Z,79.32
2023-03-05T00:01:12.231Z,79.00
2023-03-05T00:02:12.275Z,78.90
2023-03-05T00:03:12.237Z,79.21
2023-03-05T00:04:12.220Z,78.69
2023-03-05T00:05:12.185Z,78.90
2023-03-05T00:06:12.184Z,78.80
2023-03-05T00:07:12.203Z,79.32
2023-03-05T00:08:12.165Z,79.52
2023-03-05T00:09:12.151Z,79.11
2023-03-05T00:10:12.143Z,79.21
2023-03-05T00:11:12.145Z,79.11
2023-03-05T00:12:12.146Z,79.32
2023-03-05T00:13:12.100Z,79.32
2023-03-05T00:14:12.093Z,79.32
2023-03-05T00:15:12.095Z,79.21
2023-03-05T00:16:12.136Z,79.32
2023-03-05T00:17:12.060Z,79.52
2023-03-05T00:18:12.062Z,79.52
2023-03-05T00:19:12.045Z,79.73
2023-03-05T00:20:12.031Z,79.52
2023-03-05T00:21:12.015Z,79.63
2023-03-05T00:22:12.067Z,79.42
2023-03-05T00:23:12.010Z,79.42
2023-03-05T00:24:11.989Z,79.52
2023-03-05T00:25:11.985Z,79.63
2023-03-05T00:26:11.972Z,79.52
2023-03-05T00:27:11.968Z,79.73
2023-03-05T00:28:11.972Z,79.63
2023-03-05T00:29:11.935Z,79.83
2023-03-05T00:30:11.923Z,79.73
2023-03-05T00:31:12.016Z,79.94
2023-03-05T00:32:11.991Z,79.73
2023-03-05T00:33:11.901Z,79.83
2023-03-05T00:34:11.891Z,79.94
2023-03-05T00:35:11.892Z,80.05
2023-03-05T00:36:11.887Z,79.87
2023-03-05T00:37:12.068Z,80.15
2023-03-05T00:38:11.855Z,80.40
2023-03-05T00:39:11.850Z,80.60
2023-03-05T00:40:11.849Z,80.19
2023-03-05T00:41:11.830Z,80.60
2023-03-05T00:42:11.830Z,80.50
2023-03-05T00:43:11.808Z,80.81
2023-03-05T00:44:11.792Z,80.81
2023-03-05T00:45:11.782Z,80.50
2023-03-05T00:46:11.788Z,80.50
2023-03-05T00:47:11.837Z,80.60
2023-03-05T00:48:11.747Z,80.29
2023-03-05T00:49:11.745Z,79.98
2023-03-05T00:50:11.729Z,79.87
2023-03-05T00:51:11.736Z,79.77
2023-03-05T00:52:12.385Z,79.56
2023-03-05T00:53:11.714Z,79.35
2023-03-05T00:54:11.701Z,79.56
2023-03-05T00:55:11.680Z,79.77
2023-03-05T00:56:11.672Z,79.77
2023-03-05T00:57:12.049Z,79.56
2023-03-05T00:58:11.652Z,79.66
2023-03-05T00:59:11.655Z,79.66
2023-03-05T01:00:11.632Z,79.66
2023-03-05T01:01:11.628Z,79.56
2023-03-05T01:02:11.599Z,79.87
2023-03-05T01:03:11.600Z,80.29
2023-03-05T01:04:11.573Z,79.98
2023-03-05T01:05:11.597Z,80.08
2023-03-05T01:06:11.568Z,79.56
2023-03-05T01:07:11.555Z,79.66
2023-03-05T01:08:11.544Z,79.56
2023-03-05T01:09:11.535Z,79.56
2023-03-05T01:10:11.511Z,79.46
2023-03-05T01:11:11.515Z,79.56
2023-03-05T01:12:11.495Z,79.56
2023-03-05T01:13:11.489Z,79.66
2023-03-05T01:14:11.466Z,79.98
2023-03-05T01:15:11.457Z,79.98
2023-03-05T01:16:11.477Z,79.87
2023-03-05T01:17:11.438Z,79.98
2023-03-05T01:18:11.452Z,80.08
2023-03-05T01:19:17.696Z,79.56
2023-03-05T01:20:12.963Z,80.19
2023-03-05T01:21:11.391Z,79.66
2023-03-05T01:22:11.379Z,78.63
2023-03-05T01:23:11.383Z,78.83
2023-03-05T01:24:11.358Z,78.94
2023-03-05T01:25:11.360Z,79.14
2023-03-05T01:26:11.345Z,79.04
2023-03-05T01:27:11.334Z,78.83
2023-03-05T01:28:11.335Z,78.73
2023-03-05T01:29:11.323Z,78.63
2023-03-05T01:30:11.296Z,78.63
2023-03-05T01:31:11.311Z,78.73
2023-03-05T01:32:11.281Z,79.04
2023-03-05T01:33:11.283Z,79.14
2023-03-05T01:34:11.256Z,79.14
2023-03-05T01:35:11.244Z,79.35
2023-03-05T01:36:11.230Z,79.25
2023-03-05T01:37:11.227Z,79.25
2023-03-05T01:38:11.224Z,79.35
2023-03-05T01:39:11.207Z,79.35
2023-03-05T01:40:11.201Z,79.35
2023-03-05T01:41:11.198Z,79.77
2023-03-05T01:42:11.168Z,79.77
2023-03-05T01:43:11.175Z,79.77
2023-03-05T01:44:11.146Z,79.77
2023-03-05T01:45:11.144Z,79.77
2023-03-05T01:46:11.166Z,79.46
2023-03-05T01:47:11.123Z,79.46
2023-03-05T01:48:11.115Z,79.14
2023-03-05T01:49:11.106Z,79.46
2023-03-05T01:50:11.082Z,79.56
2023-03-05T01:51:11.093Z,79.25
2023-03-05T01:52:11.073Z,79.04
2023-03-05T01:53:11.066Z,79.04
2023-03-05T01:54:11.044Z,79.56
2023-03-05T01:55:11.037Z,79.66
2023-03-05T01:56:11.024Z,79.25
2023-03-05T01:57:11.023Z,79.25
2023-03-05T01:58:11.014Z,79.25
2023-03-05T01:59:10.998Z,79.04
2023-03-05T02:00:10.992Z,78.83
2023-03-05T02:01:11.001Z,78.63
2023-03-05T02:02:10.958Z,78.31
2023-03-05T02:03:10.961Z,78.31
2023-03-05T02:04:11.064Z,78.00
2023-03-05T02:05:10.947Z,77.69
2023-03-05T02:06:10.920Z,77.69
2023-03-05T02:07:10.929Z,77.79
2023-03-05T02:08:10.899Z,78.10
2023-03-05T02:09:10.894Z,77.89
2023-03-05T02:10:10.876Z,77.89
2023-03-05T02:11:10.882Z,78.10
2023-03-05T02:12:10.863Z,77.79
2023-03-05T02:13:10.868Z,78.10
2023-03-05T02:14:10.837Z,78.42
2023-03-05T02:15:10.831Z,77.89
2023-03-05T02:16:10.855Z,77.79
2023-03-05T02:17:10.815Z,77.69
2023-03-05T02:18:10.829Z,77.69
2023-03-05T02:19:10.791Z,78.00
2023-03-05T02:20:10.797Z,77.89
2023-03-05T02:21:10.774Z,77.89
2023-03-05T02:22:10.754Z,77.69
2023-03-05T02:23:10.761Z,77.79
2023-03-05T02:24:10.742Z,78.10
2023-03-05T02:25:10.733Z,78.31
2023-03-05T02:26:10.725Z,78.10
2023-03-05T02:27:10.717Z,78.20
2023-03-05T02:28:10.713Z,78.10
2023-03-05T02:29:10.690Z,77.89
2023-03-05T02:30:10.683Z,78.00
2023-03-05T02:31:10.676Z,78.00
2023-03-05T02:32:10.757Z,77.58
2023-03-05T02:33:10.682Z,78.00
2023-03-05T02:34:10.641Z,78.00
2023-03-05T02:35:10.625Z,78.20
2023-03-05T02:36:10.622Z,78.10
2023-03-05T02:37:10.613Z,77.89
2023-03-05T02:38:10.596Z,78.20
2023-03-05T02:39:10.596Z,78.73
2023-03-05T02:40:10.571Z,78.31
2023-03-05T02:41:10.570Z,78.42
2023-03-05T02:42:10.551Z,78.83
2023-03-05T02:43:10.549Z,78.63
2023-03-05T02:44:10.540Z,77.89
2023-03-05T02:45:10.526Z,78.20
2023-03-05T02:46:10.572Z,78.31
2023-03-05T02:47:10.510Z,78.31
2023-03-05T02:48:10.494Z,78.20
2023-03-05T02:49:10.493Z,78.20
2023-03-05T02:50:10.473Z,78.00
2023-03-05T02:51:10.469Z,77.89
2023-03-05T02:52:10.456Z,78.00
2023-03-05T02:53:10.453Z,78.52
2023-03-05T02:54:10.429Z,78.83
2023-03-05T02:55:10.436Z,78.42
2023-03-05T02:56:10.419Z,79.25
2023-03-05T02:57:10.408Z,78.83
2023-03-05T02:58:10.397Z,79.14
2023-03-05T02:59:10.395Z,78.73
2023-03-05T03:00:10.497Z,78.73
2023-03-05T03:01:10.443Z,79.66
2023-03-05T03:02:10.364Z,79.98
2023-03-05T03:03:10.377Z,79.56
2023-03-05T03:04:10.336Z,78.94
2023-03-05T03:05:10.332Z,79.14
2023-03-05T03:06:10.323Z,79.25
2023-03-05T03:07:10.309Z,79.25
2023-03-05T03:08:10.318Z,79.98
2023-03-05T03:09:10.292Z,79.77
2023-03-05T03:10:10.269Z,80.02
2023-03-05T03:11:10.267Z,79.87
2023-03-05T03:12:10.259Z,79.70
2023-03-05T03:13:10.284Z,79.77
2023-03-05T03:14:10.238Z,79.77
2023-03-05T03:15:10.230Z,79.91
2023-03-05T03:16:10.219Z,79.70
2023-03-05T03:17:10.212Z,79.28
2023-03-05T03:18:10.203Z,79.28
2023-03-05T03:19:10.190Z,79.46
2023-03-05T03:20:10.172Z,79.49
2023-03-05T03:21:10.176Z,79.49
2023-03-05T03:22:10.174Z,78.97
2023-03-05T03:23:10.160Z,78.73
2023-03-05T03:24:10.142Z,79.04
2023-03-05T03:25:10.132Z,78.94
2023-03-05T03:26:10.124Z,79.25
2023-03-05T03:27:10.116Z,79.77
2023-03-05T03:28:10.109Z,79.98
2023-03-05T03:29:10.090Z,80.08
2023-03-05T03:30:10.067Z,79.70
2023-03-05T03:31:10.088Z,79.25
2023-03-05T03:32:10.073Z,79.25
2023-03-05T03:33:10.054Z,78.42
2023-03-05T03:34:10.036Z,78.20
2023-03-05T03:35:10.038Z,78.31
2023-03-05T03:36:10.018Z,78.52
2023-03-05T03:37:10.010Z,78.73
2023-03-05T03:38:09.996Z,79.04
2023-03-05T03:39:09.995Z,79.35
2023-03-05T03:40:09.978Z,80.29
2023-03-05T03:41:09.975Z,80.19
2023-03-05T03:42:09.968Z,80.29
2023-03-05T03:43:10.489Z,79.77
2023-03-05T03:44:09.933Z,79.14
2023-03-05T03:45:09.926Z,79.04
2023-03-05T03:46:10.004Z,79.14
2023-03-05T03:47:09.911Z,78.94
2023-03-05T03:48:10.802Z,79.04
2023-03-05T03:49:09.891Z,78.63
2023-03-05T03:50:09.870Z,78.52
2023-03-05T03:51:09.866Z,78.20
2023-03-05T03:52:09.867Z,78.10
2023-03-05T03:53:10.224Z,78.42
2023-03-05T03:54:09.832Z,78.63
2023-03-05T03:55:09.842Z,79.14
2023-03-05T03:56:09.820Z,79.66
2023-03-05T03:57:09.811Z,79.87
2023-03-05T03:58:10.339Z,80.40
2023-03-05T03:59:09.785Z,80.91
2023-03-05T04:00:09.766Z,81.47
2023-03-05T04:01:09.768Z,82.41
2023-03-05T04:02:09.783Z,83.04
2023-03-05T04:03:10.530Z,83.76
2023-03-05T04:04:09.842Z,84.91
2023-03-05T04:05:09.725Z,84.84
2023-03-05T04:06:09.719Z,84.74
2023-03-05T04:07:09.698Z,84.84
2023-03-05T04:08:10.026Z,85.26
2023-03-05T04:09:09.692Z,85.47
2023-03-05T04:10:09.674Z,84.84
2023-03-05T04:11:09.678Z,84.84
2023-03-05T04:12:09.679Z,85.05
2023-03-05T04:13:10.096Z,84.84
2023-03-05T04:14:09.643Z,84.84
2023-03-05T04:15:09.622Z,84.95
2023-03-05T04:16:09.690Z,84.95
2023-03-05T04:17:09.603Z,84.95
2023-03-05T04:18:10.506Z,84.84
2023-03-05T04:19:09.619Z,85.36
2023-03-05T04:20:09.606Z,85.26
2023-03-05T04:21:09.588Z,84.95
2023-03-05T04:22:09.547Z,85.47
2023-03-05T04:23:10.000Z,85.47
2023-03-05T04:24:09.522Z,85.58
2023-03-05T04:25:09.523Z,85.58
2023-03-05T04:26:09.507Z,85.68
2023-03-05T04:27:09.512Z,85.16
2023-03-05T04:28:09.842Z,85.16
2023-03-05T04:29:09.493Z,85.05
2023-03-05T04:30:09.474Z,84.95
2023-03-05T04:31:09.478Z,84.95
2023-03-05T04:32:09.460Z,84.81
2023-03-05T04:33:10.212Z,84.18
2023-03-05T04:34:09.419Z,84.28
2023-03-05T04:35:09.420Z,84.28
2023-03-05T04:36:09.414Z,84.81
2023-03-05T04:37:09.403Z,84.81
2023-03-05T04:38:09.773Z,85.02
2023-03-05T04:39:09.378Z,84.60
2023-03-05T04:40:09.375Z,84.18
2023-03-05T04:41:09.356Z,84.18
2023-03-05T04:42:09.336Z,84.28
2023-03-05T04:43:09.634Z,83.97
2023-03-05T04:44:09.338Z,84.18
2023-03-05T04:45:09.298Z,84.28
2023-03-05T04:46:09.322Z,84.08
2023-03-05T04:47:09.277Z,84.39
2023-03-05T04:48:09.584Z,84.28
2023-03-05T04:49:09.262Z,84.50
2023-03-05T04:50:09.263Z,84.50
2023-03-05T04:51:09.239Z,84.70
2023-03-05T04:52:09.237Z,85.02
2023-03-05T04:53:09.564Z,85.12
2023-03-05T04:54:09.219Z,85.02
2023-03-05T04:55:09.203Z,85.02
2023-03-05T04:56:09.213Z,85.22
2023-03-05T04:57:09.195Z,85.33
2023-03-05T04:58:09.513Z,85.22
2023-03-05T04:59:09.159Z,84.91
2023-03-05T05:00:09.146Z,85.02
2023-03-05T05:01:09.140Z,85.12
2023-03-05T05:02:09.132Z,85.12
2023-03-05T05:03:09.177Z,85.33
2023-03-05T05:04:09.131Z,85.12
2023-03-05T05:05:09.094Z,84.91
2023-03-05T05:06:09.100Z,85.12
2023-03-05T05:07:09.082Z,85.22
2023-03-05T05:08:09.073Z,85.12
2023-03-05T05:09:09.065Z,85.22
2023-03-05T05:10:09.053Z,85.43
2023-03-05T05:11:09.038Z,85.53
2023-03-05T05:12:09.032Z,85.43
2023-03-05T05:13:09.018Z,85.43
2023-03-05T05:14:09.015Z,85.53
2023-03-05T05:15:08.990Z,85.22
2023-03-05T05:16:09.027Z,85.12
2023-03-05T05:17:08.973Z,85.43
2023-03-05T05:18:08.976Z,85.43
2023-03-05T05:19:09.012Z,85.12
2023-03-05T05:20:08.944Z,85.12
2023-03-05T05:21:08.942Z,85.12
2023-03-05T05:22:08.937Z,85.12
2023-03-05T05:23:08.917Z,85.22
2023-03-05T05:24:08.911Z,85.22
2023-03-05T05:25:08.900Z,84.91
2023-03-05T05:26:08.888Z,84.60
2023-03-05T05:27:08.870Z,84.81
2023-03-05T05:28:08.872Z,84.70
2023-03-05T05:29:08.880Z,84.60
2023-03-05T05:30:08.847Z,84.70
2023-03-05T05:31:08.864Z,84.81
2023-03-05T05:32:08.784Z,84.81
2023-03-05T05:33:08.808Z,84.50
2023-03-05T05:34:08.823Z,84.39
2023-03-05T05:35:08.795Z,84.60
2023-03-05T05:36:08.744Z,84.70
2023-03-05T05:37:08.721Z,84.60
2023-03-05T05:38:08.715Z,84.39
2023-03-05T05:39:08.765Z,84.39
2023-03-05T05:40:08.757Z,84.60
2023-03-05T05:41:08.699Z,84.39
2023-03-05T05:42:08.676Z,84.50
2023-03-05T05:43:08.691Z,84.50
2023-03-05T05:44:08.720Z,84.60
2023-03-05T05:45:08.711Z,84.39
2023-03-05T05:46:08.823Z,84.18
2023-03-05T05:47:08.634Z,84.18
2023-03-05T05:48:08.634Z,84.18
2023-03-05T05:49:08.606Z,84.28
2023-03-05T05:50:08.599Z,84.50
2023-03-05T05:51:08.590Z,84.50
2023-03-05T05:52:08.586Z,84.18
2023-03-05T05:53:08.565Z,84.50
2023-03-05T05:54:08.563Z,84.50
2023-03-05T05:55:08.545Z,84.28
2023-03-05T05:56:08.531Z,84.28
2023-03-05T05:57:08.525Z,84.50
2023-03-05T05:58:08.514Z,84.39
2023-03-05T05:59:08.499Z,84.60
2023-03-05T06:00:08.509Z,84.60
2023-03-05T06:01:08.483Z,84.91
2023-03-05T06:02:08.498Z,85.43
2023-03-05T06:03:08.475Z,85.64
2023-03-05T06:04:08.468Z,85.22
2023-03-05T06:05:08.435Z,85.43
2023-03-05T06:06:08.450Z,85.43
2023-03-05T06:07:08.422Z,85.53
2023-03-05T06:08:08.409Z,86.06
2023-03-05T06:09:08.401Z,86.27
2023-03-05T06:10:08.396Z,86.47
2023-03-05T06:11:08.379Z,86.68
2023-03-05T06:12:08.382Z,86.58
2023-03-05T06:13:08.363Z,86.79
2023-03-05T06:14:08.356Z,86.37
2023-03-05T06:15:08.376Z,86.06
2023-03-05T06:16:08.343Z,86.27
2023-03-05T06:17:08.964Z,86.58
2023-03-05T06:18:08.312Z,86.06
2023-03-05T06:19:08.308Z,86.06
2023-03-05T06:20:08.303Z,86.06
2023-03-05T06:21:08.277Z,86.16
2023-03-05T06:22:08.267Z,86.16
2023-03-05T06:23:08.256Z,85.53
2023-03-05T06:24:08.247Z,85.74
2023-03-05T06:25:08.239Z,86.16
2023-03-05T06:26:08.226Z,85.96
2023-03-05T06:27:08.221Z,86.06
2023-03-05T06:28:08.219Z,85.64
2023-03-05T06:29:08.201Z,85.71
2023-03-05T06:30:08.195Z,85.60
2023-03-05T06:31:08.208Z,85.39
2023-03-05T06:32:08.186Z,85.19
2023-03-05T06:33:08.164Z,86.12
2023-03-05T06:34:08.156Z,86.85
2023-03-05T06:35:08.139Z,87.06
2023-03-05T06:36:08.130Z,87.68
2023-03-05T06:37:08.114Z,87.99
2023-03-05T06:38:08.108Z,88.42
2023-03-05T06:39:08.097Z,88.52
2023-03-05T06:40:08.090Z,88.52
2023-03-05T06:41:08.070Z,88.66
2023-03-05T06:42:08.070Z,88.24
2023-03-05T06:43:08.059Z,88.04
2023-03-05T06:44:08.053Z,87.99
2023-03-05T06:45:08.044Z,87.99
2023-03-05T06:46:08.131Z,88.10
2023-03-05T06:47:08.019Z,87.06
2023-03-05T06:48:08.004Z,87.48
2023-03-05T06:49:08.007Z,87.27
2023-03-05T06:50:08.000Z,86.65
2023-03-05T06:51:08.000Z,85.71
2023-03-05T06:52:07.978Z,85.81
2023-03-05T06:53:07.964Z,86.12
2023-03-05T06:54:07.982Z,85.98
2023-03-05T06:55:07.937Z,85.46
2023-03-05T06:56:07.929Z,85.46
2023-03-05T06:57:07.905Z,85.35
2023-03-05T06:58:07.919Z,84.63
2023-03-05T06:59:08.160Z,83.90
2023-03-05T07:00:07.909Z,84.00
2023-03-05T07:01:07.903Z,83.48
2023-03-05T07:02:07.931Z,83.69
2023-03-05T07:03:07.849Z,84.42
2023-03-05T07:04:07.864Z,84.00
2023-03-05T07:05:07.840Z,84.11
2023-03-05T07:06:07.833Z,84.31
2023-03-05T07:07:07.815Z,84.11
2023-03-05T07:08:07.823Z,84.31
2023-03-05T07:09:08.146Z,83.90
2023-03-05T07:10:07.803Z,84.00
2023-03-05T07:11:07.772Z,84.00
2023-03-05T07:12:07.780Z,83.58
2023-03-05T07:13:07.755Z,83.17
2023-03-05T07:14:08.079Z,83.27
2023-03-05T07:15:07.726Z,83.27
2023-03-05T07:16:07.751Z,83.80
2023-03-05T07:17:07.717Z,83.48
2023-03-05T07:18:07.703Z,82.86
2023-03-05T07:19:08.088Z,82.96
2023-03-05T07:20:07.689Z,83.06
2023-03-05T07:21:13.747Z,83.17
2023-03-05T07:22:08.294Z,83.37
2023-03-05T07:23:07.649Z,83.58
2023-03-05T07:24:08.377Z,83.48
2023-03-05T07:25:07.626Z,83.06
2023-03-05T07:26:07.633Z,82.96
2023-03-05T07:27:07.613Z,82.96
2023-03-05T07:28:07.651Z,82.96
2023-03-05T07:29:07.972Z,82.71
2023-03-05T07:30:07.587Z,82.61
2023-03-05T07:31:07.616Z,82.61
2023-03-05T07:32:07.631Z,82.71
2023-03-05T07:33:07.546Z,83.03
2023-03-05T07:34:07.846Z,82.82
2023-03-05T07:35:07.529Z,83.03
2023-03-05T07:36:07.523Z,82.82
2023-03-05T07:37:07.511Z,82.09
2023-03-05T07:38:07.504Z,82.09
2023-03-05T07:39:07.905Z,82.82
2023-03-05T07:40:07.477Z,82.61
2023-03-05T07:41:07.471Z,82.40
2023-03-05T07:42:07.491Z,82.51
2023-03-05T07:43:07.448Z,82.61
2023-03-05T07:44:07.634Z,82.57
2023-03-05T07:45:07.441Z,82.36
2023-03-05T07:46:07.520Z,82.57
2023-03-05T07:47:07.416Z,82.89
2023-03-05T07:48:07.409Z,83.20
2023-03-05T07:49:07.403Z,82.64
2023-03-05T07:50:07.381Z,82.12
2023-03-05T07:51:07.373Z,81.39
2023-03-05T07:52:07.372Z,81.39
2023-03-05T07:53:07.350Z,82.12
2023-03-05T07:54:07.344Z,82.32
2023-03-05T07:55:07.331Z,80.56
2023-03-05T07:56:07.316Z,80.91
2023-03-05T07:57:07.308Z,81.32
2023-03-05T07:58:07.306Z,80.70
2023-03-05T07:59:07.284Z,81.53
2023-03-05T08:00:07.295Z,81.63
2023-03-05T08:01:07.270Z,81.95
2023-03-05T08:02:07.332Z,82.46
2023-03-05T08:03:07.246Z,81.22
2023-03-05T08:04:07.276Z,81.22
2023-03-05T08:05:07.237Z,81.53
2023-03-05T08:06:07.231Z,81.88
2023-03-05T08:07:07.220Z,81.88
2023-03-05T08:08:07.212Z,81.98
2023-03-05T08:09:07.182Z,82.51
2023-03-05T08:10:07.184Z,82.20
2023-03-05T08:11:07.167Z,82.09
2023-03-05T08:12:07.173Z,81.77
2023-03-05T08:13:07.162Z,82.09
2023-03-05T08:14:07.142Z,82.40
2023-03-05T08:15:07.136Z,82.71
2023-03-05T08:16:07.204Z,82.71
2023-03-05T08:17:07.104Z,82.51
2023-03-05T08:18:07.107Z,82.92
2023-03-05T08:19:07.081Z,83.13
2023-03-05T08:20:07.084Z,83.75
2023-03-05T08:21:07.064Z,84.06
2023-03-05T08:22:07.074Z,84.69
2023-03-05T08:23:07.049Z,85.11
2023-03-05T08:24:07.042Z,85.63
2023-03-05T08:25:07.038Z,86.81
2023-03-05T08:26:07.020Z,87.12
2023-03-05T08:27:07.009Z,87.65
2023-03-05T08:28:06.995Z,88.27
2023-03-05T08:29:06.994Z,88.62
2023-03-05T08:30:06.988Z,89.04
2023-03-05T08:31:06.971Z,89.45
2023-03-05T08:32:07.017Z,90.08
2023-03-05T08:33:06.944Z,90.81
2023-03-05T08:34:06.948Z,90.60
2023-03-05T08:35:06.931Z,90.95
2023-03-05T08:36:06.911Z,91.27
2023-03-05T08:37:06.908Z,91.58
2023-03-05T08:38:06.901Z,91.78
2023-03-05T08:39:06.906Z,91.68
2023-03-05T08:40:06.896Z,91.89
2023-03-05T08:41:06.860Z,92.21
2023-03-05T08:42:08.875Z,93.24
2023-03-05T08:43:06.837Z,92.93
2023-03-05T08:44:06.863Z,93.35
2023-03-05T08:45:06.829Z,92.83
2023-03-05T08:46:06.896Z,92.72
2023-03-05T08:47:06.814Z,93.04
2023-03-05T08:48:06.794Z,93.31
2023-03-05T08:49:06.789Z,93.41
2023-03-05T08:50:06.832Z,92.58
2023-03-05T08:51:06.765Z,92.79
2023-03-05T08:52:06.754Z,92.95
2023-03-05T08:53:06.753Z,93.27
2023-03-05T08:54:06.749Z,92.43
2023-03-05T08:55:06.738Z,92.39
2023-03-05T08:56:06.705Z,92.39
2023-03-05T08:57:06.716Z,90.10
2023-03-05T08:58:06.695Z,90.31
2023-03-05T08:59:06.704Z,90.41
2023-03-05T09:00:06.673Z,89.95
2023-03-05T09:01:06.690Z,89.02
2023-03-05T09:02:06.717Z,89.33
2023-03-05T09:03:06.665Z,87.98
2023-03-05T09:04:06.638Z,88.40
2023-03-05T09:05:06.644Z,88.25
2023-03-05T09:06:06.629Z,87.32
2023-03-05T09:07:06.616Z,87.52
2023-03-05T09:08:06.598Z,87.84
2023-03-05T09:09:06.585Z,88.35
2023-03-05T09:10:06.583Z,89.87
2023-03-05T09:11:06.572Z,89.15
2023-03-05T09:12:06.547Z,87.07
2023-03-05T09:13:06.544Z,87.90
2023-03-05T09:14:06.532Z,86.24
2023-03-05T09:15:06.523Z,86.61
2023-03-05T09:16:06.629Z,85.51
2023-03-05T09:17:06.511Z,84.47
2023-03-05T09:18:06.497Z,84.89
2023-03-05T09:19:06.483Z,85.68
2023-03-05T09:20:06.472Z,84.84
2023-03-05T09:21:06.469Z,84.53
2023-03-05T09:22:06.444Z,85.68
2023-03-05T09:23:06.454Z,84.60
2023-03-05T09:24:06.427Z,85.33
2023-03-05T09:25:06.422Z,83.98
2023-03-05T09:26:06.408Z,83.56
2023-03-05T09:27:06.399Z,81.97
2023-03-05T09:28:06.388Z,82.63
2023-03-05T09:29:06.392Z,80.76
2023-03-05T09:30:06.803Z,83.04
2023-03-05T09:31:06.394Z,82.90
2023-03-05T09:32:06.450Z,83.73
2023-03-05T09:33:06.345Z,80.93
2023-03-05T09:34:06.321Z,81.93
2023-03-05T09:35:06.329Z,82.34
2023-03-05T09:36:06.294Z,81.41
2023-03-05T09:37:06.306Z,81.51
2023-03-05T09:38:06.281Z,78.30
2023-03-05T09:39:06.275Z,79.90
2023-03-05T09:40:06.291Z,81.97
2023-03-05T09:41:06.263Z,80.62
2023-03-05T09:42:06.245Z,81.56
2023-03-05T09:43:06.246Z,81.97
2023-03-05T09:44:06.238Z,81.76
2023-03-05T09:45:06.228Z,82.45
2023-03-05T09:46:06.278Z,81.30
2023-03-05T09:47:06.197Z,81.51
2023-03-05T09:48:06.188Z,81.41
2023-03-05T09:49:06.169Z,80.68
2023-03-05T09:50:06.182Z,78.41
2023-03-05T09:51:06.171Z,78.55
2023-03-05T09:52:06.144Z,79.69
2023-03-05T09:53:06.141Z,81.04
2023-03-05T09:54:06.118Z,80.52
2023-03-05T09:55:06.157Z,81.56
2023-03-05T09:56:06.099Z,80.10
2023-03-05T09:57:06.094Z,80.10
2023-03-05T09:58:06.080Z,78.75
2023-03-05T09:59:06.074Z,80.73
2023-03-05T10:00:06.073Z,80.21
2023-03-05T10:01:06.052Z,80.21
2023-03-05T10:02:06.044Z,80.62
2023-03-05T10:03:06.136Z,80.66
2023-03-05T10:04:06.087Z,81.28
2023-03-05T10:05:06.055Z,81.59
2023-03-05T10:06:05.998Z,81.90
2023-03-05T10:07:07.900Z,81.94
2023-03-05T10:08:06.012Z,82.87
2023-03-05T10:09:05.987Z,83.50
2023-03-05T10:10:06.007Z,83.29
2023-03-05T10:11:05.968Z,82.56
2023-03-05T10:12:05.933Z,83.53
2023-03-05T10:13:05.940Z,84.30
2023-03-05T10:14:05.927Z,86.94
2023-03-05T10:15:05.977Z,87.35
2023-03-05T10:16:05.904Z,88.50
2023-03-05T10:17:05.905Z,87.98
2023-03-05T10:18:05.888Z,87.46
2023-03-05T10:19:05.876Z,88.19
2023-03-05T10:20:05.915Z,88.23
2023-03-05T10:21:05.859Z,89.48
2023-03-05T10:22:05.832Z,89.23
2023-03-05T10:23:05.845Z,89.06
2023-03-05T10:24:05.832Z,89.48
2023-03-05T10:25:05.811Z,90.26
2023-03-05T10:26:05.819Z,89.85
2023-03-05T10:27:05.855Z,90.16
2023-03-05T10:28:05.807Z,90.06
2023-03-05T10:29:05.787Z,88.77
2023-03-05T10:30:05.779Z,89.04
2023-03-05T10:31:05.763Z,87.79
2023-03-05T10:32:05.797Z,87.79
2023-03-05T10:33:05.724Z,88.48
2023-03-05T10:34:05.707Z,89.94
2023-03-05T10:35:05.723Z,88.17
2023-03-05T10:36:05.696Z,85.68
2023-03-05T10:37:05.681Z,85.43
2023-03-05T10:38:05.674Z,82.87
2023-03-05T10:39:05.677Z,82.87
2023-03-05T10:40:05.650Z,82.87
2023-03-05T10:41:05.657Z,82.77
2023-03-05T10:42:05.637Z,83.50
2023-03-05T10:43:05.626Z,84.95
2023-03-05T10:44:05.615Z,84.33
2023-03-05T10:45:05.614Z,84.43
2023-03-05T10:46:05.678Z,84.33
2023-03-05T10:47:05.594Z,84.64
2023-03-05T10:48:05.564Z,84.12
2023-03-05T10:49:05.570Z,84.74
2023-03-05T10:50:05.552Z,83.18
2023-03-05T10:51:05.549Z,84.12
2023-03-05T10:52:05.531Z,83.60
2023-03-05T10:53:05.521Z,82.98
2023-03-05T10:54:05.512Z,82.67
2023-03-05T10:55:05.518Z,81.84
2023-03-05T10:56:05.491Z,82.50
2023-03-05T10:57:05.484Z,83.29
2023-03-05T10:58:05.469Z,82.98
2023-03-05T10:59:05.472Z,82.67
2023-03-05T11:00:05.466Z,84.01
2023-03-05T11:01:05.464Z,82.15
2023-03-05T11:02:05.477Z,81.21
2023-03-05T11:03:05.434Z,81.90
2023-03-05T11:04:05.411Z,82.53
2023-03-05T11:05:05.411Z,81.90
2023-03-05T11:06:05.430Z,81.80
2023-03-05T11:07:05.381Z,82.63
2023-03-05T11:08:05.364Z,81.18
2023-03-05T11:09:05.367Z,81.70
2023-03-05T11:10:05.370Z,81.18
2023-03-05T11:11:05.342Z,82.21
2023-03-05T11:12:05.321Z,82.18
2023-03-05T11:13:05.321Z,79.58
2023-03-05T11:14:05.301Z,79.38
2023-03-05T11:15:05.304Z,78.13
2023-03-05T11:16:05.340Z,78.89
2023-03-05T11:17:05.282Z,79.17
2023-03-05T11:18:05.263Z,79.58
2023-03-05T11:19:05.262Z,78.55
2023-03-05T11:20:05.242Z,79.48
2023-03-05T11:21:05.242Z,79.90
2023-03-05T11:22:05.227Z,78.34
2023-03-05T11:23:05.221Z,79.48
2023-03-05T11:24:05.195Z,79.75
2023-03-05T11:25:05.189Z,79.34
2023-03-05T11:26:05.178Z,80.02
2023-03-05T11:27:05.175Z,79.61
2023-03-05T11:28:05.185Z,77.12
2023-03-05T11:29:05.150Z,78.16
2023-03-05T11:30:05.138Z,77.75
2023-03-05T11:31:05.212Z,77.75
2023-03-05T11:32:05.163Z,76.95
2023-03-05T11:33:05.114Z,76.61
2023-03-05T11:34:05.094Z,77.95
2023-03-05T11:35:05.089Z,77.54
2023-03-05T11:36:05.318Z,76.81
2023-03-05T11:37:05.062Z,76.98
2023-03-05T11:38:05.061Z,75.57
2023-03-05T11:39:05.058Z,77.23
2023-03-05T11:40:05.043Z,77.81
2023-03-05T11:41:05.034Z,75.98
2023-03-05T11:42:05.024Z,77.64
2023-03-05T11:43:05.035Z,78.02
2023-03-05T11:44:04.997Z,77.19
2023-03-05T11:45:04.990Z,75.43
2023-03-05T11:46:05.054Z,74.32
2023-03-05T11:47:04.977Z,75.71
2023-03-05T11:48:04.978Z,74.77
2023-03-05T11:49:04.959Z,74.77
2023-03-05T11:50:04.932Z,75.92
2023-03-05T11:51:04.938Z,74.74
2023-03-05T11:52:04.909Z,75.88
2023-03-05T11:53:04.913Z,75.02
2023-03-05T11:54:04.889Z,75.19
2023-03-05T11:55:04.898Z,74.43
2023-03-05T11:56:04.888Z,73.98
2023-03-05T11:57:04.866Z,73.15
2023-03-05T11:58:04.852Z,73.64
2023-03-05T11:59:04.867Z,72.71
2023-03-05T12:00:04.843Z,72.47
2023-03-05T12:01:04.839Z,71.84
2023-03-05T12:02:04.837Z,71.47
2023-03-05T12:03:04.856Z,71.70
2023-03-05T12:04:04.881Z,74.40
2023-03-05T12:05:04.790Z,74.71
2023-03-05T12:06:04.787Z,75.12
2023-03-05T12:07:04.773Z,74.15
2023-03-05T12:08:04.750Z,73.43
2023-03-05T12:09:04.755Z,72.81
2023-03-05T12:10:04.806Z,70.32
2023-03-05T12:11:04.758Z,72.08
2023-03-05T12:12:04.720Z,71.15
2023-03-05T12:13:04.706Z,72.60
2023-03-05T12:14:04.703Z,71.57
2023-03-05T12:15:04.684Z,70.77
2023-03-05T12:16:04.717Z,70.98
2023-03-05T12:17:04.669Z,72.12
2023-03-05T12:18:05.073Z,71.78
2023-03-05T12:19:04.682Z,70.15
2023-03-05T12:20:04.674Z,70.36
2023-03-05T12:21:04.662Z,70.29
2023-03-05T12:22:04.610Z,70.91
2023-03-05T12:23:04.618Z,71.01
2023-03-05T12:24:04.603Z,71.33
2023-03-05T12:25:04.586Z,72.98
2023-03-05T12:26:04.587Z,71.63
2023-03-05T12:27:04.767Z,72.22
2023-03-05T12:28:04.574Z,72.43
2023-03-05T12:29:04.549Z,72.94
2023-03-05T12:30:04.538Z,72.33
2023-03-05T12:31:04.574Z,72.46
2023-03-05T12:32:04.543Z,70.91
2023-03-05T12:33:04.519Z,72.67
2023-03-05T12:34:04.855Z,72.77
2023-03-05T12:35:04.492Z,73.60
2023-03-05T12:36:04.529Z,72.15
2023-03-05T12:37:04.489Z,73.71
2023-03-05T12:38:17.231Z,72.36
2023-03-05T12:39:04.451Z,72.15
2023-03-05T12:40:04.424Z,72.05
2023-03-05T12:41:04.426Z,71.01
2023-03-05T12:42:04.421Z,70.18
2023-03-05T12:43:04.418Z,70.91
2023-03-05T12:44:04.392Z,70.11
2023-03-05T12:45:04.378Z,69.73
2023-03-05T12:46:05.306Z,70.46
2023-03-05T12:47:04.409Z,71.11
2023-03-05T12:48:04.350Z,71.63
2023-03-05T12:49:04.336Z,72.56
2023-03-05T12:50:04.323Z,72.15
2023-03-05T12:51:04.674Z,73.18
2023-03-05T12:52:04.321Z,71.94